Terminal Aerodrome Forecast
Issued by NWS Charleston, WV

Current Version | Previous Version | Text Only | Print | Product List | Glossary Off
Versions: 1 2 3 4 5 6 7 8 9 10 11 12 13 14 15 16 17 18 19 20 21 22 23 24 25 26 27

000
FTUS41 KRLX 260500 RRA
TAFBKW
TAF
KBKW 260545Z 2606/2706 00000KT 6SM -SN BR OVC070
     FM260700 00000KT 4SM -SN BR OVC035
     FM260900 VRB03KT 2SM -SN BR OVC025
     FM261100 VRB03KT 4SM -SN BR OVC015
     FM261600 VRB03KT P6SM OVC008
     FM262000 31005KT 6SM BR OVC010
     FM270000 VRB03KT 2SM -SHSN BR BKN008=

USA.gov is the U.S. government's official web portal to all federal, state and local government web resources and services.